createdAt,value
2023-04-30T00:00:36.902Z,36.17
2023-04-30T00:03:05.500Z,35.40
2023-04-30T00:05:34.951Z,32.85
2023-04-30T00:08:02.869Z,31.07
2023-04-30T00:10:30.834Z,30.93
2023-04-30T00:12:58.857Z,33.25
2023-04-30T00:15:26.906Z,30.47
2023-04-30T00:17:54.854Z,30.23
2023-04-30T00:20:22.800Z,29.37
2023-04-30T00:22:52.150Z,29.53
2023-04-30T00:25:21.148Z,28.47
2023-04-30T00:28:14.708Z,32.42
2023-04-30T00:30:42.735Z,31.70
2023-04-30T00:33:10.709Z,27.90
2023-04-30T00:35:38.722Z,32.87
2023-04-30T00:38:08.029Z,32.87
2023-04-30T00:40:36.310Z,36.27
2023-04-30T00:43:04.285Z,29.40
2023-04-30T00:45:32.360Z,29.97
2023-04-30T00:48:00.828Z,34.85
2023-04-30T00:50:30.069Z,34.87
2023-04-30T00:52:59.630Z,33.67
2023-04-30T00:55:29.174Z,36.40
2023-04-30T00:57:57.835Z,38.23
2023-04-30T01:00:26.386Z,36.57
2023-04-30T01:02:58.383Z,32.03
2023-04-30T01:05:26.611Z,34.90
2023-04-30T01:07:55.822Z,32.77
2023-04-30T01:10:26.199Z,33.93
2023-04-30T01:13:04.179Z,32.53
2023-04-30T01:15:37.695Z,36.33
2023-04-30T01:18:14.055Z,37.87
2023-04-30T01:20:49.815Z,34.00
2023-04-30T01:23:38.750Z,40.50
2023-04-30T01:26:15.211Z,36.80
2023-04-30T01:28:47.029Z,32.67
2023-04-30T01:31:16.606Z,38.37
2023-04-30T01:33:44.679Z,33.53
2023-04-30T01:36:31.840Z,33.30
2023-04-30T01:39:28.110Z,32.33
2023-04-30T01:42:03.896Z,34.73
2023-04-30T01:44:49.666Z,33.67
2023-04-30T01:47:28.079Z,36.23
2023-04-30T01:50:11.211Z,33.10
2023-04-30T01:52:47.309Z,34.03
2023-04-30T01:55:21.783Z,37.43
2023-04-30T01:57:58.605Z,37.30
2023-04-30T02:00:30.594Z,37.87
2023-04-30T02:02:59.296Z,36.40
2023-04-30T02:05:27.610Z,35.80
2023-04-30T02:07:57.138Z,35.27
2023-04-30T02:10:26.709Z,40.43
2023-04-30T02:12:54.962Z,43.93
2023-04-30T02:15:23.087Z,41.70
2023-04-30T02:17:52.578Z,45.13
2023-04-30T02:20:21.080Z,40.40
2023-04-30T02:22:49.020Z,46.93
2023-04-30T02:25:17.174Z,44.87
2023-04-30T02:27:45.105Z,41.73
2023-04-30T02:30:13.237Z,42.93
2023-04-30T02:32:41.245Z,43.40
2023-04-30T02:35:10.923Z,42.07
2023-04-30T02:37:39.257Z,47.63
2023-04-30T02:40:08.881Z,42.47
2023-04-30T02:42:36.827Z,47.07
2023-04-30T02:45:05.485Z,49.00
2023-04-30T02:47:33.493Z,44.20
2023-04-30T02:50:01.462Z,49.07
2023-04-30T02:52:30.760Z,44.37
2023-04-30T02:54:58.684Z,50.27
2023-04-30T02:57:26.651Z,46.03
2023-04-30T02:59:54.753Z,46.97
2023-04-30T03:02:23.706Z,48.07
2023-04-30T03:04:52.386Z,46.73
2023-04-30T03:07:20.326Z,51.17
2023-04-30T03:09:49.770Z,53.30
2023-04-30T03:12:17.722Z,52.70
2023-04-30T03:14:45.755Z,44.87
2023-04-30T03:17:14.936Z,48.60
2023-04-30T03:19:42.954Z,45.50
2023-04-30T03:22:11.647Z,49.80
2023-04-30T03:24:39.622Z,49.73
2023-04-30T03:27:08.983Z,50.20
2023-04-30T03:29:36.922Z,47.63
2023-04-30T03:32:05.215Z,50.93
2023-04-30T03:34:33.179Z,52.20
2023-04-30T03:37:03.900Z,50.30
2023-04-30T03:39:31.862Z,54.13
2023-04-30T03:42:00.359Z,56.63
2023-04-30T03:44:29.728Z,55.37
2023-04-30T03:46:57.699Z,57.33
2023-04-30T03:49:26.305Z,53.53
2023-04-30T03:51:54.314Z,55.60
2023-04-30T03:54:22.307Z,61.37
2023-04-30T03:56:50.315Z,55.70
2023-04-30T03:59:18.843Z,57.07
2023-04-30T04:01:48.213Z,56.93
2023-04-30T04:04:16.501Z,55.27
2023-04-30T04:06:44.630Z,54.00
2023-04-30T04:09:12.697Z,60.43
2023-04-30T04:11:43.205Z,56.35
2023-04-30T04:14:11.172Z,57.30
2023-04-30T04:16:39.546Z,58.53
2023-04-30T04:19:09.264Z,52.77
2023-04-30T04:21:37.889Z,58.40
2023-04-30T04:24:11.367Z,62.40
2023-04-30T04:26:39.400Z,56.37
2023-04-30T04:29:08.866Z,55.97
2023-04-30T04:31:37.127Z,57.77
2023-04-30T04:34:06.490Z,53.87
2023-04-30T04:36:36.093Z,55.33
2023-04-30T04:39:06.579Z,54.50
2023-04-30T04:41:36.263Z,55.78
2023-04-30T04:44:05.349Z,50.45
2023-04-30T04:46:33.832Z,50.80
2023-04-30T04:49:02.312Z,57.17
2023-04-30T04:51:30.522Z,57.33
2023-04-30T04:53:59.853Z,55.73
2023-04-30T04:56:27.897Z,55.77
2023-04-30T04:58:55.865Z,47.33
2023-04-30T05:01:23.890Z,53.70
2023-04-30T05:03:53.713Z,54.73
2023-04-30T05:06:21.991Z,56.63
2023-04-30T05:08:50.040Z,56.80
2023-04-30T05:11:19.748Z,55.43
2023-04-30T05:13:47.837Z,58.00
2023-04-30T05:16:16.457Z,50.60
2023-04-30T05:18:44.455Z,56.53
2023-04-30T05:21:12.498Z,51.53
2023-04-30T05:23:40.481Z,54.70
2023-04-30T05:26:08.451Z,56.53
2023-04-30T05:28:37.726Z,52.03
2023-04-30T05:31:05.687Z,52.07
2023-04-30T05:33:33.947Z,53.63
2023-04-30T05:36:01.901Z,49.73
2023-04-30T05:38:29.854Z,52.53
2023-04-30T05:40:57.846Z,52.47
2023-04-30T05:43:25.791Z,51.70
2023-04-30T05:45:55.216Z,48.33
2023-04-30T05:48:23.214Z,45.80
2023-04-30T05:50:51.094Z,47.40
2023-04-30T05:53:19.081Z,47.93
2023-04-30T05:55:47.094Z,48.03
2023-04-30T05:58:15.148Z,48.53
2023-04-30T06:00:43.093Z,43.67
2023-04-30T06:03:12.416Z,41.77
2023-04-30T06:05:41.549Z,49.07
2023-04-30T06:08:09.810Z,43.57
2023-04-30T06:10:38.035Z,38.97
2023-04-30T06:13:06.169Z,40.93
2023-04-30T06:15:34.320Z,36.57
2023-04-30T06:18:02.325Z,41.27
2023-04-30T06:20:31.689Z,39.73
2023-04-30T06:23:00.165Z,39.07
2023-04-30T06:25:28.114Z,38.13
2023-04-30T06:27:56.215Z,36.17
2023-04-30T06:30:24.216Z,42.70
2023-04-30T06:32:52.277Z,39.17
2023-04-30T06:35:20.350Z,38.77
2023-04-30T06:37:49.652Z,40.57
2023-04-30T06:40:17.878Z,38.27
2023-04-30T06:42:47.600Z,43.50
2023-04-30T06:45:16.162Z,38.13
2023-04-30T06:47:46.191Z,38.83
2023-04-30T06:50:15.706Z,34.43
2023-04-30T06:52:43.833Z,38.93
2023-04-30T06:55:13.123Z,41.03
2023-04-30T06:57:41.099Z,44.33
2023-04-30T07:00:11.926Z,38.03
2023-04-30T07:02:40.015Z,37.95
2023-04-30T07:05:09.185Z,40.40
2023-04-30T07:07:37.138Z,40.87
2023-04-30T07:10:05.801Z,37.75
2023-04-30T07:12:35.159Z,40.10
2023-04-30T07:15:03.503Z,40.72
2023-04-30T07:17:31.853Z,38.30
2023-04-30T07:19:59.818Z,44.25
2023-04-30T07:22:27.907Z,46.67
2023-04-30T07:24:56.489Z,38.83
2023-04-30T07:27:24.550Z,40.38
2023-04-30T07:29:56.488Z,37.78
2023-04-30T07:32:27.173Z,39.80
2023-04-30T07:34:55.251Z,40.22
2023-04-30T07:37:23.225Z,40.53
2023-04-30T07:39:51.198Z,38.42
2023-04-30T07:42:19.113Z,41.35
2023-04-30T07:44:48.924Z,39.92
2023-04-30T07:47:19.669Z,36.88
2023-04-30T07:49:47.991Z,44.42
2023-04-30T07:52:18.454Z,44.17
2023-04-30T07:54:49.994Z,41.72
2023-04-30T07:57:17.989Z,41.45
2023-04-30T07:59:46.134Z,41.80
2023-04-30T08:02:14.407Z,41.70
2023-04-30T08:04:45.298Z,45.55
2023-04-30T08:09:41.387Z,37.55
2023-04-30T08:12:13.093Z,44.65
2023-04-30T08:14:41.012Z,49.05
2023-04-30T08:17:11.020Z,39.08
2023-04-30T08:19:38.965Z,38.55
2023-04-30T08:22:08.282Z,37.70
2023-04-30T08:24:38.507Z,37.55
2023-04-30T08:27:06.553Z,37.88
2023-04-30T08:29:35.939Z,38.47
2023-04-30T08:32:07.784Z,36.88
2023-04-30T08:34:36.218Z,33.90
2023-04-30T08:37:04.188Z,34.25
2023-04-30T08:39:34.341Z,32.72
2023-04-30T08:42:05.146Z,32.58
2023-04-30T08:44:35.340Z,29.73
2023-04-30T08:47:04.495Z,35.72
2023-04-30T08:49:33.247Z,29.83
2023-04-30T08:52:02.177Z,28.50
2023-04-30T08:54:33.472Z,32.30
2023-04-30T08:57:01.578Z,26.00
2023-04-30T08:59:29.589Z,28.67
2023-04-30T09:01:57.602Z,29.52
2023-04-30T09:04:25.639Z,26.83
2023-04-30T09:06:58.854Z,26.17
2023-04-30T09:09:30.612Z,28.15
2023-04-30T09:12:23.727Z,25.00
2023-04-30T09:15:02.160Z,24.52
2023-04-30T09:17:30.745Z,21.98
2023-04-30T09:20:08.359Z,22.35
2023-04-30T09:22:38.368Z,22.75
2023-04-30T09:25:07.808Z,25.50
2023-04-30T09:28:51.144Z,20.73
2023-04-30T09:31:22.231Z,22.60
2023-04-30T09:33:50.698Z,17.23
2023-04-30T09:36:18.688Z,19.05
2023-04-30T09:38:46.972Z,20.40
2023-04-30T09:41:40.779Z,21.63
2023-04-30T09:44:08.992Z,16.88
2023-04-30T09:46:38.510Z,14.95
2023-04-30T09:49:07.475Z,17.20
2023-04-30T09:51:35.721Z,17.75
2023-04-30T09:54:04.323Z,19.13
2023-04-30T09:56:36.626Z,15.45
2023-04-30T09:59:07.582Z,17.23
2023-04-30T10:01:40.383Z,13.65
2023-04-30T10:04:10.732Z,15.30
2023-04-30T10:06:39.963Z,12.43
2023-04-30T10:09:11.831Z,14.75
2023-04-30T10:11:42.284Z,15.82
2023-04-30T10:14:12.951Z,12.13
2023-04-30T10:19:19.871Z,12.15
2023-04-30T10:21:48.565Z,10.75
2023-04-30T10:24:19.490Z,11.00
2023-04-30T10:26:48.918Z,12.82
2023-04-30T10:29:18.885Z,12.55
2023-04-30T10:31:49.193Z,11.20
2023-04-30T10:34:27.083Z,15.10
2023-04-30T10:37:00.089Z,15.05
2023-04-30T10:39:29.206Z,18.65
2023-04-30T10:42:04.191Z,16.27
2023-04-30T10:44:33.607Z,18.88
2023-04-30T10:47:02.759Z,16.98
2023-04-30T10:49:32.843Z,16.70
2023-04-30T10:52:03.625Z,17.92
2023-04-30T10:57:12.148Z,21.92
2023-04-30T10:59:45.131Z,21.95
2023-04-30T11:02:16.447Z,19.20
2023-04-30T11:05:15.456Z,18.42
2023-04-30T11:07:50.785Z,20.30
2023-04-30T11:10:22.776Z,18.85
2023-04-30T11:12:52.203Z,18.35
2023-04-30T11:15:22.801Z,20.52
2023-04-30T11:20:24.059Z,14.30
2023-04-30T11:23:10.420Z,15.05
2023-04-30T11:25:42.392Z,15.18
2023-04-30T11:28:15.544Z,13.93
2023-04-30T11:30:51.822Z,16.77
2023-04-30T11:33:20.701Z,10.88
2023-04-30T11:35:52.898Z,13.40
2023-04-30T11:38:22.639Z,16.02
2023-04-30T11:40:52.273Z,11.02
2023-04-30T11:43:24.875Z,10.35
2023-04-30T11:46:07.593Z,14.27
2023-04-30T11:48:36.325Z,9.65
2023-04-30T11:51:16.196Z,13.25
2023-04-30T11:53:46.685Z,11.32
2023-04-30T11:56:14.636Z,14.10
2023-04-30T11:59:56.732Z,14.85
2023-04-30T12:02:25.107Z,13.43
2023-04-30T12:04:53.157Z,15.05
2023-04-30T12:07:23.445Z,16.00
2023-04-30T12:09:55.591Z,26.92
2023-04-30T12:12:30.106Z,12.68
2023-04-30T12:14:58.479Z,11.48
2023-04-30T12:17:33.955Z,11.65
2023-04-30T12:20:02.312Z,15.77
2023-04-30T12:22:32.041Z,12.93
2023-04-30T12:25:02.351Z,13.57
2023-04-30T12:27:31.918Z,13.50
2023-04-30T12:30:04.090Z,11.25
2023-04-30T12:32:33.415Z,9.57
2023-04-30T12:35:03.090Z,10.00
2023-04-30T12:37:32.464Z,8.02
2023-04-30T12:40:00.907Z,14.07
2023-04-30T12:42:34.333Z,11.55
2023-04-30T12:45:02.754Z,8.98
2023-04-30T12:47:31.267Z,8.77
2023-04-30T12:49:59.357Z,11.07
2023-04-30T12:52:27.716Z,8.15
2023-04-30T12:54:57.046Z,8.70
2023-04-30T12:57:25.119Z,9.68
2023-04-30T13:00:01.006Z,7.38
2023-04-30T13:02:32.094Z,8.00
2023-04-30T13:05:00.589Z,10.18
2023-04-30T13:07:38.564Z,5.07
2023-04-30T13:10:08.806Z,6.28
2023-04-30T13:12:36.790Z,7.53
2023-04-30T13:15:05.260Z,9.77
2023-04-30T13:17:33.407Z,8.55
2023-04-30T13:20:01.677Z,10.25
2023-04-30T13:22:30.246Z,13.43
2023-04-30T13:24:58.338Z,9.48
2023-04-30T13:27:27.869Z,8.82
2023-04-30T13:29:58.312Z,9.85
2023-04-30T13:34:56.156Z,8.68
2023-04-30T13:37:24.193Z,7.75
2023-04-30T13:39:52.350Z,7.97
2023-04-30T13:42:48.165Z,7.50
2023-04-30T13:45:16.441Z,7.15
2023-04-30T13:47:44.833Z,8.43
2023-04-30T13:50:13.240Z,11.43
2023-04-30T13:57:05.373Z,8.02
2023-04-30T13:59:35.036Z,8.98
2023-04-30T14:02:03.112Z,8.77
2023-04-30T14:04:31.490Z,7.30
2023-04-30T14:06:59.687Z,8.07
2023-04-30T14:09:27.982Z,6.05
2023-04-30T14:11:59.069Z,5.78
2023-04-30T14:14:27.197Z,10.30
2023-04-30T14:16:56.744Z,8.13
2023-04-30T14:19:24.869Z,8.60
2023-04-30T14:21:52.892Z,5.88
2023-04-30T14:24:20.798Z,8.45
2023-04-30T14:26:48.752Z,5.97
2023-04-30T14:29:20.385Z,7.15
2023-04-30T14:31:49.535Z,6.97
2023-04-30T14:34:19.823Z,5.65
2023-04-30T14:36:48.161Z,6.75
2023-04-30T14:39:16.150Z,5.80
2023-04-30T14:41:44.255Z,5.63
2023-04-30T14:44:12.381Z,9.75
2023-04-30T14:46:40.805Z,7.00
2023-04-30T14:49:08.800Z,6.50
2023-04-30T14:51:38.168Z,11.20
2023-04-30T14:54:06.204Z,8.65
2023-04-30T14:56:34.390Z,5.88
2023-04-30T14:59:02.334Z,11.70
2023-04-30T15:01:30.537Z,13.40
2023-04-30T15:03:58.792Z,8.13
2023-04-30T15:06:27.004Z,9.45
2023-04-30T15:08:56.636Z,10.00
2023-04-30T15:11:25.115Z,7.30
2023-04-30T15:13:54.571Z,6.40
2023-04-30T15:16:23.283Z,7.63
2023-04-30T15:18:51.482Z,9.88
2023-04-30T15:21:19.700Z,7.22
2023-04-30T15:23:47.761Z,9.90
2023-04-30T15:26:17.146Z,9.05
2023-04-30T15:28:45.369Z,9.38
2023-04-30T15:31:13.435Z,9.00
2023-04-30T15:33:42.254Z,11.00
2023-04-30T15:36:11.645Z,10.63
2023-04-30T15:38:39.721Z,9.73
2023-04-30T15:41:07.755Z,7.53
2023-04-30T15:43:37.150Z,7.25
2023-04-30T15:46:05.375Z,6.05
2023-04-30T15:48:33.350Z,9.52
2023-04-30T15:51:01.378Z,10.60
2023-04-30T15:53:29.282Z,7.85
2023-04-30T15:55:57.496Z,8.25
2023-04-30T15:58:25.591Z,7.85
2023-04-30T16:00:54.897Z,8.70
2023-04-30T16:03:23.009Z,7.65
2023-04-30T16:05:51.268Z,9.07
2023-04-30T16:08:19.342Z,8.05
2023-04-30T16:10:47.410Z,6.97
2023-04-30T16:13:15.371Z,7.80
2023-04-30T16:15:43.321Z,7.95
2023-04-30T16:18:12.711Z,8.50
2023-04-30T16:20:42.596Z,7.13
2023-04-30T16:23:10.597Z,8.63
2023-04-30T16:25:38.682Z,9.88
2023-04-30T16:28:06.737Z,11.18
2023-04-30T16:30:35.113Z,8.38
2023-04-30T16:33:03.112Z,9.38
2023-04-30T16:35:32.562Z,10.30
2023-04-30T16:38:02.593Z,9.43
2023-04-30T16:40:30.996Z,11.13
2023-04-30T16:43:00.692Z,11.32
2023-04-30T16:45:30.306Z,10.02
2023-04-30T16:47:58.430Z,9.48
2023-04-30T16:50:27.006Z,9.88
2023-04-30T16:52:56.361Z,12.25
2023-04-30T16:55:25.146Z,7.32
2023-04-30T16:57:53.940Z,6.15
2023-04-30T17:00:22.056Z,8.00
2023-04-30T17:02:52.838Z,9.75
2023-04-30T17:05:21.446Z,8.77
2023-04-30T17:07:49.815Z,8.00
2023-04-30T17:10:19.645Z,8.88
2023-04-30T17:12:47.771Z,8.43
2023-04-30T17:15:15.737Z,9.30
2023-04-30T17:17:43.747Z,7.22
2023-04-30T17:20:13.322Z,8.95
2023-04-30T17:22:41.381Z,8.00
2023-04-30T17:25:10.359Z,8.48
2023-04-30T17:27:39.807Z,6.93
2023-04-30T17:30:09.838Z,11.32
2023-04-30T17:32:38.294Z,9.55
2023-04-30T17:35:07.435Z,9.60
2023-04-30T17:37:35.944Z,9.27
2023-04-30T17:40:05.447Z,11.55
2023-04-30T17:42:34.117Z,8.70
2023-04-30T17:45:03.619Z,7.65
2023-04-30T17:47:32.244Z,7.53
2023-04-30T17:50:00.452Z,9.43
2023-04-30T17:52:28.394Z,9.90
2023-04-30T17:54:56.937Z,11.57
2023-04-30T17:57:25.284Z,11.93
2023-04-30T17:59:53.346Z,11.98
2023-04-30T18:02:22.972Z,13.48
2023-04-30T18:04:51.203Z,13.68
2023-04-30T18:07:19.309Z,11.40
2023-04-30T18:09:47.580Z,14.50
2023-04-30T18:12:15.629Z,15.10
2023-04-30T18:14:43.548Z,13.77
2023-04-30T18:17:11.576Z,16.63
2023-04-30T18:19:44.492Z,19.75
2023-04-30T18:22:12.818Z,15.50
2023-04-30T18:24:40.969Z,17.52
2023-04-30T18:27:09.318Z,16.92
2023-04-30T18:29:37.550Z,17.08
2023-04-30T18:32:06.215Z,17.50
2023-04-30T18:34:34.336Z,20.20
2023-04-30T18:37:03.712Z,15.15
2023-04-30T18:39:32.023Z,17.13
2023-04-30T18:42:00.144Z,15.50
2023-04-30T18:44:31.630Z,18.33
2023-04-30T18:46:59.614Z,18.83
2023-04-30T18:49:27.649Z,16.23
2023-04-30T18:51:56.508Z,18.85
2023-04-30T18:54:25.921Z,14.68
2023-04-30T18:56:54.193Z,20.50
2023-04-30T18:59:22.720Z,16.90
2023-04-30T19:01:51.050Z,19.83
2023-04-30T19:04:19.047Z,23.58
2023-04-30T19:06:49.709Z,17.38
2023-04-30T19:09:17.920Z,10.48
2023-04-30T19:11:47.938Z,14.27
2023-04-30T19:14:15.880Z,11.17
2023-04-30T19:16:44.554Z,12.80
2023-04-30T19:19:12.821Z,12.60
2023-04-30T19:21:40.829Z,12.70
2023-04-30T19:24:08.795Z,12.25
2023-04-30T19:26:37.900Z,17.55
2023-04-30T19:29:07.209Z,11.77
2023-04-30T19:31:35.679Z,13.35
2023-04-30T19:34:03.811Z,12.25
2023-04-30T19:36:32.134Z,13.43
2023-04-30T19:39:00.281Z,13.75
2023-04-30T19:41:29.021Z,12.43
2023-04-30T19:43:57.031Z,13.77
2023-04-30T19:46:27.081Z,14.95
2023-04-30T19:48:55.155Z,16.20
2023-04-30T19:51:23.174Z,16.55
2023-04-30T19:53:52.187Z,11.90
2023-04-30T19:56:20.186Z,15.80
2023-04-30T19:58:48.475Z,14.30
2023-04-30T20:01:16.622Z,13.00
2023-04-30T20:03:46.022Z,13.95
2023-04-30T20:06:14.097Z,12.90
2023-04-30T20:08:42.096Z,12.75
2023-04-30T20:11:10.175Z,13.70
2023-04-30T20:13:38.147Z,15.63
2023-04-30T20:16:06.749Z,16.63
2023-04-30T20:18:34.938Z,12.93
2023-04-30T20:21:04.681Z,13.60
2023-04-30T20:23:32.658Z,15.77
2023-04-30T20:26:00.591Z,12.65
2023-04-30T20:28:28.549Z,16.25
2023-04-30T20:30:56.619Z,14.95
2023-04-30T20:33:49.402Z,15.38
2023-04-30T20:36:19.532Z,15.27
2023-04-30T20:38:48.002Z,16.52
2023-04-30T20:41:15.978Z,14.75
2023-04-30T20:43:43.938Z,13.55
2023-04-30T20:46:13.803Z,15.05
2023-04-30T20:48:41.978Z,14.13
2023-04-30T20:51:10.827Z,13.00
2023-04-30T20:53:40.387Z,14.40
2023-04-30T20:56:08.858Z,13.32
2023-04-30T20:58:36.995Z,18.02
2023-04-30T21:01:05.078Z,13.23
2023-04-30T21:03:33.115Z,12.70
2023-04-30T21:06:01.148Z,13.82
2023-04-30T21:08:29.121Z,11.38
2023-04-30T21:10:58.482Z,11.73
2023-04-30T21:13:26.659Z,11.85
2023-04-30T21:15:56.383Z,10.50
2023-04-30T21:18:26.634Z,13.18
2023-04-30T21:20:56.388Z,10.57
2023-04-30T21:23:24.378Z,8.90
2023-04-30T21:25:55.091Z,9.20
2023-04-30T21:28:24.472Z,9.20
2023-04-30T21:30:52.480Z,10.57
2023-04-30T21:33:20.921Z,10.02
2023-04-30T21:35:49.121Z,10.07
2023-04-30T21:38:17.035Z,10.55
2023-04-30T21:40:45.028Z,7.07
2023-04-30T21:43:12.991Z,9.13
2023-04-30T21:45:43.554Z,8.82
2023-04-30T21:48:11.590Z,8.68
2023-04-30T21:50:40.169Z,10.40
2023-04-30T21:53:08.309Z,9.02
2023-04-30T21:55:36.313Z,8.60
2023-04-30T21:58:04.498Z,9.82
2023-04-30T22:00:32.737Z,9.52
2023-04-30T22:03:02.128Z,9.65
2023-04-30T22:05:30.139Z,11.18
2023-04-30T22:07:58.198Z,11.95
2023-04-30T22:10:26.278Z,9.30
2023-04-30T22:12:54.220Z,8.38
2023-04-30T22:15:22.389Z,9.82
2023-04-30T22:17:50.467Z,10.20
2023-04-30T22:20:19.910Z,7.93
2023-04-30T22:22:47.966Z,10.23
2023-04-30T22:25:17.699Z,10.55
2023-04-30T22:27:45.933Z,10.13
2023-04-30T22:30:14.009Z,10.95
2023-04-30T22:32:42.360Z,10.55
2023-04-30T22:35:11.479Z,9.55
2023-04-30T22:37:40.865Z,9.73
2023-04-30T22:40:09.829Z,11.80
2023-04-30T22:42:37.769Z,9.45
2023-04-30T22:45:06.702Z,10.57
2023-04-30T22:47:35.271Z,9.80
2023-04-30T22:50:04.214Z,9.93
2023-04-30T22:52:33.227Z,11.40
2023-04-30T22:55:03.195Z,10.13
2023-04-30T22:57:31.272Z,13.13
2023-04-30T22:59:59.333Z,9.60
2023-04-30T23:02:27.804Z,10.35
2023-04-30T23:04:55.787Z,11.90
2023-04-30T23:07:23.719Z,14.32
2023-04-30T23:09:52.075Z,12.75
2023-04-30T23:12:22.478Z,12.75
2023-04-30T23:14:50.949Z,15.82
2023-04-30T23:17:19.022Z,14.52
2023-04-30T23:19:47.023Z,16.50
2023-04-30T23:22:14.981Z,16.13
2023-04-30T23:24:42.942Z,15.38
2023-04-30T23:27:11.380Z,15.65
2023-04-30T23:29:40.844Z,16.67
2023-04-30T23:32:08.819Z,15.75
2023-04-30T23:34:36.986Z,17.27
2023-04-30T23:37:05.039Z,19.65
2023-04-30T23:39:33.584Z,16.60
2023-04-30T23:42:02.522Z,18.02
2023-04-30T23:44:32.508Z,18.63
2023-04-30T23:47:02.105Z,16.98
2023-04-30T23:49:30.032Z,17.85
2023-04-30T23:51:57.967Z,17.42
2023-04-30T23:54:26.028Z,19.70
2023-04-30T23:56:54.069Z,20.90
2023-04-30T23:59:22.072Z,16.27
